createdAt,value
2024-01-09T00:00:14.444Z,36.90
2024-01-09T00:00:24.557Z,36.80
2024-01-09T00:00:34.548Z,37.10
2024-01-09T00:00:44.473Z,37.10
2024-01-09T00:00:54.568Z,37.50
2024-01-09T00:01:04.527Z,37.10
2024-01-09T00:01:24.518Z,36.50
2024-01-09T00:01:34.444Z,36.50
2024-01-09T00:01:45.097Z,37.60
2024-01-09T00:01:54.458Z,38.50
2024-01-09T00:02:04.618Z,39.40
2024-01-09T00:02:14.457Z,38.80
2024-01-09T00:02:34.474Z,38.00
2024-01-09T00:02:44.510Z,38.60
2024-01-09T00:02:54.497Z,38.20
2024-01-09T00:03:04.625Z,38.60
2024-01-09T00:03:15.322Z,38.50
2024-01-09T00:03:24.471Z,38.80
2024-01-09T00:03:44.451Z,37.50
2024-01-09T00:03:54.613Z,38.30
2024-01-09T00:04:04.546Z,37.90
2024-01-09T00:04:14.464Z,39.60
2024-01-09T00:04:24.513Z,38.40
2024-01-09T00:04:34.525Z,38.60
2024-01-09T00:04:54.479Z,37.30
2024-01-09T00:05:04.583Z,35.80
2024-01-09T00:05:14.466Z,37.10
2024-01-09T00:05:24.633Z,38.40
2024-01-09T00:05:34.596Z,38.90
2024-01-09T00:05:44.586Z,37.50
2024-01-09T00:05:54.636Z,35.80
2024-01-09T00:06:04.803Z,36.40
2024-01-09T00:06:24.606Z,38.00
2024-01-09T00:06:34.473Z,36.30
2024-01-09T00:06:44.476Z,36.90
2024-01-09T00:06:54.485Z,37.00
2024-01-09T00:07:04.423Z,38.70
2024-01-09T00:07:14.440Z,39.30
2024-01-09T00:07:25.206Z,38.90
2024-01-09T00:07:34.416Z,39.20
2024-01-09T00:07:54.613Z,40.10
2024-01-09T00:08:05.168Z,40.20
2024-01-09T00:08:14.560Z,39.70
2024-01-09T00:08:24.528Z,39.50
2024-01-09T00:08:34.503Z,40.60
2024-01-09T00:08:44.481Z,40.90
2024-01-09T00:09:04.456Z,39.70
2024-01-09T00:09:14.411Z,39.40
2024-01-09T00:09:27.116Z,38.20
2024-01-09T00:09:34.435Z,38.20
2024-01-09T00:09:44.404Z,38.60
2024-01-09T00:09:54.556Z,39.00
2024-01-09T00:10:14.494Z,38.80
2024-01-09T00:10:25.122Z,38.30
2024-01-09T00:10:34.396Z,39.50
2024-01-09T00:10:44.402Z,39.50
2024-01-09T00:10:54.446Z,39.40
2024-01-09T00:11:04.473Z,40.50
2024-01-09T00:11:24.571Z,40.90
2024-01-09T00:11:34.480Z,40.30
2024-01-09T00:11:44.487Z,40.50
2024-01-09T00:11:54.405Z,40.10
2024-01-09T00:12:04.390Z,38.50
2024-01-09T00:12:15.072Z,37.50
2024-01-09T00:12:34.389Z,37.20
2024-01-09T00:12:44.394Z,36.60
2024-01-09T00:12:54.468Z,37.30
2024-01-09T00:13:04.407Z,38.00
2024-01-09T00:13:14.418Z,38.90
2024-01-09T00:13:24.491Z,37.90
2024-01-09T00:13:34.421Z,38.20
2024-01-09T00:13:54.421Z,37.90
2024-01-09T00:14:04.446Z,37.60
2024-01-09T00:14:14.430Z,37.80
2024-01-09T00:14:24.567Z,38.30
2024-01-09T00:14:34.425Z,37.70
2024-01-09T00:14:44.429Z,38.80
2024-01-09T00:14:54.508Z,38.20
2024-01-09T00:15:04.413Z,38.70
2024-01-09T00:15:14.412Z,39.20
2024-01-09T00:15:34.403Z,39.20
2024-01-09T00:15:44.410Z,38.90
2024-01-09T00:15:55.061Z,39.50
2024-01-09T00:16:04.423Z,39.60
2024-01-09T00:16:14.543Z,39.40
2024-01-09T00:16:24.484Z,39.20
2024-01-09T00:16:44.375Z,37.30
2024-01-09T00:16:54.466Z,38.20
2024-01-09T00:17:04.452Z,39.80
2024-01-09T00:17:14.418Z,40.70
2024-01-09T00:17:24.465Z,41.00
2024-01-09T00:17:34.434Z,40.20
2024-01-09T00:17:44.462Z,39.20
2024-01-09T00:18:04.676Z,39.70
2024-01-09T00:18:14.797Z,40.10
2024-01-09T00:18:25.119Z,38.90
2024-01-09T00:18:34.537Z,37.20
2024-01-09T00:18:44.509Z,37.30
2024-01-09T00:18:54.822Z,38.00
2024-01-09T00:19:14.570Z,40.20
2024-01-09T00:19:24.545Z,38.80
2024-01-09T00:19:34.859Z,37.40
2024-01-09T00:19:44.504Z,37.30
2024-01-09T00:19:54.518Z,38.60
2024-01-09T00:20:04.507Z,39.20
2024-01-09T00:20:24.520Z,40.40
2024-01-09T00:20:35.092Z,41.20
2024-01-09T00:20:44.421Z,40.40
2024-01-09T00:20:54.400Z,40.00
2024-01-09T00:21:04.387Z,38.70
2024-01-09T00:21:14.374Z,39.50
2024-01-09T00:21:34.381Z,39.60
2024-01-09T00:21:44.366Z,39.00
2024-01-09T00:21:54.487Z,39.40
2024-01-09T00:22:04.390Z,38.30
2024-01-09T00:22:14.372Z,37.70
2024-01-09T00:22:24.360Z,38.40
2024-01-09T00:22:44.394Z,39.60
2024-01-09T00:22:54.471Z,39.90
2024-01-09T00:23:04.416Z,40.60
2024-01-09T00:23:14.483Z,40.50
2024-01-09T00:23:24.409Z,40.50
2024-01-09T00:23:34.391Z,40.30
2024-01-09T00:23:44.522Z,40.80
2024-01-09T00:23:54.413Z,40.50
2024-01-09T00:24:04.404Z,40.40
2024-01-09T00:24:14.385Z,41.20
2024-01-09T00:24:34.350Z,41.30
2024-01-09T00:24:44.386Z,40.40
2024-01-09T00:24:54.533Z,40.30
2024-01-09T00:25:04.399Z,39.80
2024-01-09T00:25:14.345Z,41.10
2024-01-09T00:25:25.150Z,41.00
2024-01-09T00:25:34.380Z,40.60
2024-01-09T00:25:44.405Z,39.00
2024-01-09T00:26:04.354Z,40.50
2024-01-09T00:26:14.366Z,41.20
2024-01-09T00:26:24.378Z,40.30
2024-01-09T00:26:34.361Z,39.80
2024-01-09T00:26:44.403Z,39.90
2024-01-09T00:26:54.541Z,40.00
2024-01-09T00:27:14.372Z,38.30
2024-01-09T00:27:24.354Z,38.30
2024-01-09T00:27:34.360Z,39.30
2024-01-09T00:27:44.414Z,40.20
2024-01-09T00:27:54.368Z,41.00
2024-01-09T00:28:04.374Z,40.90
2024-01-09T00:28:24.363Z,40.20
2024-01-09T00:28:34.351Z,39.60
2024-01-09T00:28:44.344Z,39.80
2024-01-09T00:28:54.543Z,40.10
2024-01-09T00:29:04.456Z,40.60
2024-01-09T00:29:14.441Z,40.80
2024-01-09T00:29:24.369Z,40.80
2024-01-09T00:29:44.375Z,39.80
2024-01-09T00:29:54.394Z,39.10
2024-01-09T00:30:04.423Z,39.10
2024-01-09T00:30:14.464Z,39.50
2024-01-09T00:30:24.415Z,39.20
2024-01-09T00:30:34.381Z,39.30
2024-01-09T00:30:54.451Z,40.80
2024-01-09T00:31:04.396Z,41.90
2024-01-09T00:31:14.326Z,41.50
2024-01-09T00:31:24.328Z,40.80
2024-01-09T00:31:34.398Z,39.80
2024-01-09T00:31:44.347Z,41.20
2024-01-09T00:32:06.057Z,41.60
2024-01-09T00:32:14.488Z,40.80
2024-01-09T00:32:24.388Z,42.50
2024-01-09T00:32:34.461Z,42.40
2024-01-09T00:32:44.407Z,42.70
2024-01-09T00:32:54.779Z,40.50
2024-01-09T00:33:14.536Z,41.00
2024-01-09T00:33:24.569Z,41.70
2024-01-09T00:33:34.426Z,40.90
2024-01-09T00:33:44.463Z,40.40
2024-01-09T00:33:54.416Z,39.90
2024-01-09T00:34:04.382Z,41.20
2024-01-09T00:34:25.251Z,40.50
2024-01-09T00:34:34.414Z,39.80
2024-01-09T00:34:44.403Z,39.30
2024-01-09T00:34:54.328Z,40.00
2024-01-09T00:35:04.334Z,39.60
2024-01-09T00:35:14.411Z,40.80
2024-01-09T00:35:34.353Z,40.80
2024-01-09T00:35:44.414Z,39.60
2024-01-09T00:35:54.372Z,40.10
2024-01-09T00:36:04.432Z,40.40
2024-01-09T00:36:14.343Z,41.40
2024-01-09T00:36:24.377Z,42.20
2024-01-09T00:36:44.372Z,40.60
2024-01-09T00:36:54.317Z,39.70
2024-01-09T00:37:04.322Z,41.00
2024-01-09T00:37:14.318Z,41.20
2024-01-09T00:37:24.333Z,42.40
2024-01-09T00:37:34.329Z,42.80
2024-01-09T00:37:54.331Z,41.90
2024-01-09T00:38:04.307Z,41.90
2024-01-09T00:38:14.432Z,42.10
2024-01-09T00:38:24.394Z,42.00
2024-01-09T00:38:34.358Z,41.40
2024-01-09T00:38:44.366Z,42.20
2024-01-09T00:38:54.488Z,43.10
2024-01-09T00:39:04.322Z,43.90
2024-01-09T00:39:24.319Z,42.50
2024-01-09T00:39:34.298Z,41.30
2024-01-09T00:39:44.308Z,41.30
2024-01-09T00:39:54.314Z,40.90
2024-01-09T00:40:04.324Z,41.00
2024-01-09T00:40:14.293Z,40.40
2024-01-09T00:40:34.305Z,40.50
2024-01-09T00:40:44.294Z,41.20
2024-01-09T00:40:54.291Z,42.00
2024-01-09T00:41:04.444Z,42.80
2024-01-09T00:41:14.359Z,43.10
2024-01-09T00:41:24.382Z,42.20
2024-01-09T00:41:34.474Z,41.50
2024-01-09T00:41:44.355Z,40.80
2024-01-09T00:41:54.323Z,41.10
2024-01-09T00:42:14.288Z,43.00
2024-01-09T00:42:24.298Z,44.70
2024-01-09T00:42:34.302Z,45.40
2024-01-09T00:42:44.351Z,44.60
2024-01-09T00:42:54.328Z,42.10
2024-01-09T00:43:04.322Z,40.70
2024-01-09T00:43:14.314Z,40.10
2024-01-09T00:43:24.322Z,40.50
2024-01-09T00:43:34.325Z,41.00
2024-01-09T00:43:54.303Z,42.00
2024-01-09T00:44:04.285Z,42.80
2024-01-09T00:44:14.327Z,43.10
2024-01-09T00:44:24.332Z,43.60
2024-01-09T00:44:34.310Z,43.70
2024-01-09T00:44:44.324Z,43.60
2024-01-09T00:44:54.320Z,42.00
2024-01-09T00:45:04.333Z,41.10
2024-01-09T00:45:24.301Z,42.80
2024-01-09T00:45:36.287Z,42.50
2024-01-09T00:45:44.335Z,42.20
2024-01-09T00:45:54.306Z,40.50
2024-01-09T00:46:04.277Z,41.40
2024-01-09T00:46:14.320Z,41.70
2024-01-09T00:46:24.367Z,43.10
2024-01-09T00:46:44.338Z,42.80
2024-01-09T00:46:54.363Z,42.10
2024-01-09T00:47:04.391Z,42.40
2024-01-09T00:47:14.328Z,42.30
2024-01-09T00:47:24.291Z,42.40
2024-01-09T00:47:34.310Z,41.40
2024-01-09T00:47:44.702Z,41.20
2024-01-09T00:48:04.553Z,42.30
2024-01-09T00:48:15.241Z,43.00
2024-01-09T00:48:24.590Z,41.70
2024-01-09T00:48:34.377Z,41.60
2024-01-09T00:48:44.627Z,40.60
2024-01-09T00:48:54.438Z,42.30
2024-01-09T00:49:04.358Z,41.50
2024-01-09T00:49:24.421Z,41.30
2024-01-09T00:49:34.318Z,41.40
2024-01-09T00:49:44.338Z,43.40
2024-01-09T00:49:54.288Z,42.50
2024-01-09T00:50:04.304Z,43.10
2024-01-09T00:50:14.326Z,42.00
2024-01-09T00:50:24.283Z,42.10
2024-01-09T00:50:35.240Z,42.10
2024-01-09T00:50:54.386Z,41.10
2024-01-09T00:51:04.316Z,41.30
2024-01-09T00:51:14.263Z,41.00
2024-01-09T00:51:24.257Z,42.80
2024-01-09T00:51:34.321Z,42.60
2024-01-09T00:51:44.262Z,41.80
2024-01-09T00:51:54.323Z,41.60
2024-01-09T00:52:14.344Z,43.00
2024-01-09T00:52:24.282Z,42.10
2024-01-09T00:52:34.258Z,41.00
2024-01-09T00:52:44.263Z,41.00
2024-01-09T00:52:54.253Z,41.70
2024-01-09T00:53:04.258Z,42.40
2024-01-09T00:53:24.303Z,42.90
2024-01-09T00:53:34.306Z,42.30
2024-01-09T00:53:44.295Z,43.20
2024-01-09T00:53:54.298Z,42.80
2024-01-09T00:54:04.272Z,43.40
2024-01-09T00:54:15.092Z,43.30
2024-01-09T00:54:34.258Z,43.00
2024-01-09T00:54:44.297Z,42.20
2024-01-09T00:54:54.253Z,41.80
2024-01-09T00:55:04.272Z,41.70
2024-01-09T00:55:14.257Z,42.30
2024-01-09T00:55:24.252Z,41.90
2024-01-09T00:55:44.256Z,42.10
2024-01-09T00:55:54.280Z,43.50
2024-01-09T00:56:04.266Z,43.10
2024-01-09T00:56:14.314Z,43.70
2024-01-09T00:56:24.299Z,42.90
2024-01-09T00:56:34.329Z,42.10
2024-01-09T00:56:44.325Z,42.10
2024-01-09T00:57:04.292Z,41.80
2024-01-09T00:57:14.253Z,42.10
2024-01-09T00:57:24.237Z,42.60
2024-01-09T00:57:34.270Z,42.90
2024-01-09T00:57:44.270Z,43.40
2024-01-09T00:57:54.289Z,44.40
2024-01-09T00:58:14.254Z,42.60
2024-01-09T00:58:24.248Z,42.20
2024-01-09T00:58:34.235Z,42.80
2024-01-09T00:58:44.232Z,43.50
2024-01-09T00:58:54.241Z,43.30
2024-01-09T00:59:04.268Z,43.10
2024-01-09T00:59:14.362Z,42.40
2024-01-09T00:59:24.247Z,42.40
2024-01-09T00:59:34.257Z,43.20
2024-01-09T00:59:55.198Z,44.50
2024-01-09T01:00:04.236Z,43.60
2024-01-09T01:00:14.287Z,43.50
2024-01-09T01:00:24.253Z,43.90
2024-01-09T01:00:34.283Z,43.90
2024-01-09T01:00:44.245Z,44.10
2024-01-09T01:01:04.313Z,43.20
2024-01-09T01:01:14.287Z,42.20
2024-01-09T01:01:24.273Z,41.90
2024-01-09T01:01:34.264Z,42.10
2024-01-09T01:01:44.226Z,42.10
2024-01-09T01:01:54.268Z,41.90
2024-01-09T01:02:04.243Z,40.70
2024-01-09T01:02:24.300Z,42.00
2024-01-09T01:02:34.291Z,43.30
2024-01-09T01:02:44.273Z,44.10
2024-01-09T01:02:54.407Z,43.60
2024-01-09T01:03:04.229Z,43.70
2024-01-09T01:03:14.274Z,44.10
2024-01-09T01:03:34.253Z,45.90
2024-01-09T01:03:44.245Z,45.70
2024-01-09T01:03:54.272Z,45.10
2024-01-09T01:04:04.325Z,43.60
2024-01-09T01:04:14.270Z,43.10
2024-01-09T01:04:24.265Z,42.60
2024-01-09T01:04:34.302Z,42.80
2024-01-09T01:04:44.278Z,43.00
2024-01-09T01:04:54.274Z,42.10
2024-01-09T01:05:15.172Z,42.20
2024-01-09T01:05:24.421Z,42.90
2024-01-09T01:05:34.417Z,43.30
2024-01-09T01:05:44.256Z,44.70
2024-01-09T01:05:54.422Z,45.30
2024-01-09T01:06:04.318Z,45.00
2024-01-09T01:06:24.264Z,45.00
2024-01-09T01:06:34.206Z,45.10
2024-01-09T01:06:44.235Z,44.60
2024-01-09T01:06:54.204Z,44.70
2024-01-09T01:07:04.252Z,43.50
2024-01-09T01:07:14.234Z,43.60
2024-01-09T01:07:24.239Z,44.20
2024-01-09T01:07:34.219Z,44.30
2024-01-09T01:07:44.230Z,43.40
2024-01-09T01:07:54.208Z,43.10
2024-01-09T01:08:14.257Z,43.00
2024-01-09T01:08:24.271Z,42.70
2024-01-09T01:08:35.153Z,43.10
2024-01-09T01:08:44.234Z,43.90
2024-01-09T01:08:54.232Z,44.00
2024-01-09T01:09:04.214Z,44.70
2024-01-09T01:09:15.083Z,44.50
2024-01-09T01:09:24.229Z,43.90
2024-01-09T01:09:44.309Z,42.70
2024-01-09T01:09:55.197Z,43.10
2024-01-09T01:10:04.216Z,43.80
2024-01-09T01:10:16.425Z,43.90
2024-01-09T01:10:24.218Z,44.40
2024-01-09T01:10:34.228Z,44.20
2024-01-09T01:10:44.229Z,43.60
2024-01-09T01:11:04.206Z,43.40
2024-01-09T01:11:14.285Z,44.70
2024-01-09T01:11:24.344Z,44.10
2024-01-09T01:11:34.282Z,44.90
2024-01-09T01:11:44.239Z,44.00
2024-01-09T01:11:54.245Z,44.00
2024-01-09T01:12:14.243Z,43.00
2024-01-09T01:12:24.375Z,43.20
2024-01-09T01:12:34.225Z,43.30
2024-01-09T01:12:45.058Z,44.20
2024-01-09T01:12:54.197Z,44.50
2024-01-09T01:13:04.228Z,44.40
2024-01-09T01:13:14.253Z,44.00
2024-01-09T01:13:34.197Z,45.00
2024-01-09T01:13:44.185Z,44.90
2024-01-09T01:13:54.190Z,43.20
2024-01-09T01:14:04.195Z,42.80
2024-01-09T01:14:14.244Z,44.30
2024-01-09T01:14:24.220Z,46.40
2024-01-09T01:14:34.239Z,45.90
2024-01-09T01:14:54.258Z,42.90
2024-01-09T01:15:04.351Z,43.30
2024-01-09T01:15:14.195Z,44.20
2024-01-09T01:15:24.216Z,44.90
2024-01-09T01:15:34.237Z,44.60
2024-01-09T01:15:44.177Z,44.20
2024-01-09T01:16:05.079Z,44.10
2024-01-09T01:16:14.174Z,45.70
2024-01-09T01:16:24.231Z,45.70
2024-01-09T01:16:34.173Z,45.30
2024-01-09T01:16:44.285Z,44.10
2024-01-09T01:16:54.185Z,43.80
2024-01-09T01:17:14.238Z,43.10
2024-01-09T01:17:24.326Z,43.70
2024-01-09T01:17:34.237Z,43.70
2024-01-09T01:17:44.274Z,44.70
2024-01-09T01:17:54.238Z,44.50
2024-01-09T01:18:04.327Z,44.80
2024-01-09T01:18:24.206Z,45.00
2024-01-09T01:18:34.241Z,43.80
2024-01-09T01:18:44.224Z,43.30
2024-01-09T01:18:54.254Z,43.30
2024-01-09T01:19:04.282Z,43.50
2024-01-09T01:19:14.184Z,43.60
2024-01-09T01:19:24.207Z,44.20
2024-01-09T01:19:34.234Z,44.90
2024-01-09T01:19:54.202Z,45.20
2024-01-09T01:20:04.176Z,45.10
2024-01-09T01:20:14.192Z,44.50
2024-01-09T01:20:24.199Z,43.30
2024-01-09T01:20:34.340Z,43.80
2024-01-09T01:20:44.276Z,45.20
2024-01-09T01:21:04.193Z,47.00
2024-01-09T01:21:14.172Z,47.00
2024-01-09T01:21:24.238Z,46.30
2024-01-09T01:21:34.172Z,45.90
2024-01-09T01:21:44.160Z,43.90
2024-01-09T01:21:54.186Z,44.60
2024-01-09T01:22:04.209Z,43.80
2024-01-09T01:22:24.217Z,43.90
2024-01-09T01:22:34.201Z,44.00
2024-01-09T01:22:44.165Z,44.00
2024-01-09T01:22:54.170Z,45.20
2024-01-09T01:23:04.159Z,45.40
2024-01-09T01:23:14.211Z,45.00
2024-01-09T01:23:34.245Z,42.40
2024-01-09T01:23:44.221Z,41.50
2024-01-09T01:23:54.229Z,42.50
2024-01-09T01:24:05.055Z,43.30
2024-01-09T01:24:14.151Z,44.30
2024-01-09T01:24:24.181Z,44.10
2024-01-09T01:24:34.194Z,45.70
2024-01-09T01:24:54.153Z,46.00
2024-01-09T01:25:04.147Z,44.90
2024-01-09T01:25:14.169Z,44.90
2024-01-09T01:25:24.224Z,43.80
2024-01-09T01:25:34.181Z,43.00
2024-01-09T01:25:44.168Z,43.40
2024-01-09T01:25:55.054Z,44.40
2024-01-09T01:26:14.247Z,45.20
2024-01-09T01:26:24.190Z,45.60
2024-01-09T01:26:34.170Z,44.90
2024-01-09T01:26:44.191Z,45.10
2024-01-09T01:26:54.195Z,44.60
2024-01-09T01:27:04.139Z,46.30
2024-01-09T01:27:24.202Z,48.00
2024-01-09T01:27:34.136Z,47.50
2024-01-09T01:27:44.174Z,46.50
2024-01-09T01:27:54.177Z,45.60
2024-01-09T01:28:04.125Z,45.20
2024-01-09T01:28:14.162Z,45.50
2024-01-09T01:28:34.143Z,45.70
2024-01-09T01:28:44.159Z,45.80
2024-01-09T01:28:54.127Z,44.50
2024-01-09T01:29:04.145Z,45.10
2024-01-09T01:29:14.147Z,45.70
2024-01-09T01:29:25.170Z,46.30
2024-01-09T01:29:44.192Z,45.90
2024-01-09T01:29:54.174Z,45.80
2024-01-09T01:30:04.230Z,44.70
2024-01-09T01:30:14.150Z,44.40
2024-01-09T01:30:24.190Z,46.00
2024-01-09T01:30:34.275Z,46.80
2024-01-09T01:30:44.281Z,46.80
2024-01-09T01:30:54.255Z,44.80
2024-01-09T01:31:04.304Z,43.70
2024-01-09T01:31:24.123Z,45.50
2024-01-09T01:31:35.078Z,46.10
2024-01-09T01:31:44.133Z,46.10
2024-01-09T01:31:54.135Z,44.10
2024-01-09T01:32:04.139Z,44.70
2024-01-09T01:32:14.138Z,44.50
2024-01-09T01:32:24.317Z,44.50
2024-01-09T01:32:44.278Z,45.50
2024-01-09T01:32:54.272Z,47.10
2024-01-09T01:33:04.192Z,46.50
2024-01-09T01:33:14.477Z,46.10
2024-01-09T01:33:24.300Z,46.20
2024-01-09T01:33:34.370Z,46.20
2024-01-09T01:33:54.254Z,46.60
2024-01-09T01:34:04.238Z,46.00
2024-01-09T01:34:14.281Z,45.90
2024-01-09T01:34:24.186Z,45.70
2024-01-09T01:34:34.160Z,45.90
2024-01-09T01:34:44.232Z,46.10
2024-01-09T01:34:55.062Z,46.50
2024-01-09T01:35:04.134Z,45.70
2024-01-09T01:35:24.192Z,45.00
2024-01-09T01:35:34.216Z,45.50
2024-01-09T01:35:44.177Z,45.40
2024-01-09T01:35:54.178Z,44.60
2024-01-09T01:36:04.102Z,46.10
2024-01-09T01:36:14.117Z,46.20
2024-01-09T01:36:34.116Z,46.40
2024-01-09T01:36:44.118Z,46.30
2024-01-09T01:36:54.105Z,46.00
2024-01-09T01:37:04.108Z,47.00
2024-01-09T01:37:14.115Z,48.10
2024-01-09T01:37:24.159Z,47.60
2024-01-09T01:37:44.141Z,47.30
2024-01-09T01:37:54.174Z,47.60
2024-01-09T01:38:04.128Z,46.60
2024-01-09T01:38:14.109Z,46.50
2024-01-09T01:38:24.275Z,47.00
2024-01-09T01:38:34.126Z,47.90
2024-01-09T01:38:54.155Z,46.40
2024-01-09T01:39:04.128Z,46.40
2024-01-09T01:39:14.171Z,46.80
2024-01-09T01:39:24.112Z,48.30
2024-01-09T01:39:34.116Z,47.70
2024-01-09T01:39:44.113Z,47.30
2024-01-09T01:39:55.204Z,46.80
2024-01-09T01:40:14.107Z,45.40
2024-01-09T01:40:24.107Z,45.10
2024-01-09T01:40:34.109Z,45.50
2024-01-09T01:40:44.090Z,47.00
2024-01-09T01:40:54.101Z,47.00
2024-01-09T01:41:04.112Z,47.10
2024-01-09T01:41:24.112Z,45.70
2024-01-09T01:41:34.187Z,45.30
2024-01-09T01:41:44.128Z,46.20
2024-01-09T01:41:54.153Z,46.00
2024-01-09T01:42:05.773Z,46.80
2024-01-09T01:42:14.086Z,47.00
2024-01-09T01:42:34.144Z,48.00
2024-01-09T01:42:44.099Z,47.80
2024-01-09T01:42:54.097Z,47.20
2024-01-09T01:43:04.139Z,45.70
2024-01-09T01:43:14.178Z,45.60
2024-01-09T01:43:24.082Z,47.50
2024-01-09T01:43:44.072Z,47.10
2024-01-09T01:43:54.084Z,45.60
2024-01-09T01:44:04.126Z,47.00
2024-01-09T01:44:14.112Z,46.90
2024-01-09T01:44:24.164Z,46.70
2024-01-09T01:44:34.143Z,47.40
2024-01-09T01:44:54.174Z,48.50
2024-01-09T01:45:04.077Z,47.40
2024-01-09T01:45:14.083Z,45.80
2024-01-09T01:45:24.089Z,44.90
2024-01-09T01:45:34.081Z,45.00
2024-01-09T01:45:44.078Z,46.00
2024-01-09T01:46:04.109Z,47.60
2024-01-09T01:46:14.182Z,46.50
2024-01-09T01:46:24.096Z,47.20
2024-01-09T01:46:35.080Z,46.40
2024-01-09T01:46:44.084Z,46.60
2024-01-09T01:46:54.076Z,46.40
2024-01-09T01:47:14.129Z,47.30
2024-01-09T01:47:24.069Z,46.70
2024-01-09T01:47:34.169Z,46.30
2024-01-09T01:47:44.197Z,45.40
2024-01-09T01:47:54.222Z,46.40
2024-01-09T01:48:04.394Z,47.80
2024-01-09T01:48:24.339Z,48.00
2024-01-09T01:48:34.391Z,47.60
2024-01-09T01:48:44.198Z,46.80
2024-01-09T01:48:55.132Z,47.00
2024-01-09T01:49:04.152Z,46.80
2024-01-09T01:49:14.325Z,48.20
2024-01-09T01:49:34.091Z,46.50
2024-01-09T01:49:44.074Z,45.30
2024-01-09T01:49:54.076Z,46.50
2024-01-09T01:50:04.073Z,46.10
2024-01-09T01:50:14.106Z,47.80
2024-01-09T01:50:24.158Z,46.10
2024-01-09T01:50:34.110Z,46.80
2024-01-09T01:50:54.106Z,47.30
2024-01-09T01:51:04.054Z,47.20
2024-01-09T01:51:14.571Z,45.80
2024-01-09T01:51:24.059Z,44.90
2024-01-09T01:51:34.109Z,45.70
2024-01-09T01:51:44.113Z,46.80
2024-01-09T01:51:54.059Z,47.80
2024-01-09T01:52:04.065Z,46.60
2024-01-09T01:52:24.110Z,45.70
2024-01-09T01:52:34.074Z,45.70
2024-01-09T01:52:44.058Z,45.10
2024-01-09T01:52:54.059Z,46.20
2024-01-09T01:53:04.094Z,46.90
2024-01-09T01:53:14.085Z,47.60
2024-01-09T01:53:24.770Z,47.30
2024-01-09T01:53:35.104Z,48.40
2024-01-09T01:53:54.121Z,48.90
2024-01-09T01:54:04.081Z,48.70
2024-01-09T01:54:14.047Z,49.00
2024-01-09T01:54:24.150Z,48.80
2024-01-09T01:54:34.106Z,47.90
2024-01-09T01:54:44.064Z,48.00
2024-01-09T01:54:54.072Z,47.60
2024-01-09T01:55:04.104Z,48.00
2024-01-09T01:55:24.078Z,46.70
2024-01-09T01:55:34.038Z,46.30
2024-01-09T01:55:44.169Z,46.00
2024-01-09T01:55:54.071Z,47.10
2024-01-09T01:56:04.048Z,46.90
2024-01-09T01:56:14.075Z,47.60
2024-01-09T01:56:36.622Z,46.80
2024-01-09T01:56:44.085Z,46.50
2024-01-09T01:56:54.078Z,45.30
2024-01-09T01:57:04.036Z,46.40
2024-01-09T01:57:14.107Z,46.90
2024-01-09T01:57:24.091Z,48.10
2024-01-09T01:57:44.157Z,47.20
2024-01-09T01:57:54.033Z,46.30
2024-01-09T01:58:04.035Z,46.20
2024-01-09T01:58:14.082Z,45.50
2024-01-09T01:58:24.059Z,46.60
2024-01-09T01:58:34.068Z,44.70
2024-01-09T01:58:44.183Z,44.40
2024-01-09T01:59:04.059Z,45.90
2024-01-09T01:59:14.055Z,46.50
2024-01-09T01:59:24.113Z,46.30
2024-01-09T01:59:34.062Z,45.40
2024-01-09T01:59:44.094Z,44.80
2024-01-09T01:59:54.055Z,43.80
2024-01-09T02:00:14.040Z,45.20
2024-01-09T02:00:24.030Z,44.50
2024-01-09T02:00:34.050Z,45.30
2024-01-09T02:00:44.130Z,45.10
2024-01-09T02:00:54.045Z,45.70
2024-01-09T02:01:04.090Z,44.90
2024-01-09T02:01:14.063Z,47.00
2024-01-09T02:01:24.086Z,47.10
2024-01-09T02:01:44.607Z,45.50
2024-01-09T02:01:54.013Z,45.10
2024-01-09T02:02:04.033Z,44.50
2024-01-09T02:02:14.063Z,43.80
2024-01-09T02:02:24.058Z,43.70
2024-01-09T02:02:34.152Z,45.00
2024-01-09T02:02:54.172Z,46.50
2024-01-09T02:03:04.088Z,47.60
2024-01-09T02:03:14.059Z,47.50
2024-01-09T02:03:24.116Z,47.40
2024-01-09T02:03:34.114Z,45.90
2024-01-09T02:03:44.023Z,45.70
2024-01-09T02:03:54.263Z,46.30
2024-01-09T02:04:04.099Z,47.20
2024-01-09T02:04:24.101Z,47.70
2024-01-09T02:04:34.045Z,47.90
2024-01-09T02:04:46.728Z,48.60
2024-01-09T02:04:54.561Z,48.30
2024-01-09T02:05:04.116Z,48.00
2024-01-09T02:05:14.084Z,47.90
2024-01-09T02:05:34.105Z,48.70
2024-01-09T02:05:44.133Z,48.60
2024-01-09T02:05:54.102Z,48.10
2024-01-09T02:06:04.084Z,47.90
2024-01-09T02:06:14.131Z,46.40
2024-01-09T02:06:24.074Z,46.50
2024-01-09T02:06:44.017Z,48.60
2024-01-09T02:06:54.614Z,47.50
2024-01-09T02:07:04.063Z,47.40
2024-01-09T02:07:14.023Z,47.60
2024-01-09T02:07:24.062Z,49.10
2024-01-09T02:07:33.997Z,49.10
2024-01-09T02:07:54.562Z,48.20
2024-01-09T02:08:03.994Z,47.60
2024-01-09T02:08:14.061Z,47.30
2024-01-09T02:08:24.010Z,46.00
2024-01-09T02:08:34.071Z,47.20
2024-01-09T02:08:44.037Z,47.60
2024-01-09T02:09:04.064Z,49.20
2024-01-09T02:09:14.106Z,49.30
2024-01-09T02:09:24.011Z,48.30
2024-01-09T02:09:34.011Z,47.90
2024-01-09T02:09:44.001Z,47.70
2024-01-09T02:09:54.000Z,48.00
2024-01-09T02:10:13.998Z,47.30
2024-01-09T02:10:24.013Z,45.60
2024-01-09T02:10:33.989Z,45.80
2024-01-09T02:10:44.560Z,44.90
2024-01-09T02:10:54.009Z,45.50
2024-01-09T02:11:04.101Z,45.80
2024-01-09T02:11:14.076Z,46.00
2024-01-09T02:11:34.041Z,45.90
2024-01-09T02:11:44.070Z,46.10
2024-01-09T02:11:54.063Z,45.70
2024-01-09T02:12:03.986Z,47.60
2024-01-09T02:12:13.992Z,47.00
2024-01-09T02:12:23.999Z,47.80
2024-01-09T02:12:33.997Z,46.80
2024-01-09T02:12:53.998Z,46.40
2024-01-09T02:13:03.999Z,47.20
2024-01-09T02:13:13.989Z,48.30
2024-01-09T02:13:24.059Z,48.20
2024-01-09T02:13:33.982Z,48.40
2024-01-09T02:13:44.146Z,47.40
2024-01-09T02:14:04.043Z,47.30
2024-01-09T02:14:14.068Z,48.30
2024-01-09T02:14:24.042Z,48.00
2024-01-09T02:14:34.056Z,48.00
2024-01-09T02:14:44.018Z,47.50
2024-01-09T02:14:54.133Z,47.00
2024-01-09T02:15:14.008Z,46.20
2024-01-09T02:15:24.716Z,46.10
2024-01-09T02:15:34.013Z,46.80
2024-01-09T02:15:43.999Z,46.50
2024-01-09T02:15:53.981Z,47.40
2024-01-09T02:16:04.099Z,46.50
2024-01-09T02:16:13.986Z,46.20
2024-01-09T02:16:33.986Z,47.20
2024-01-09T02:16:44.013Z,48.50
2024-01-09T02:16:53.969Z,46.90
2024-01-09T02:17:03.981Z,47.20
2024-01-09T02:17:14.053Z,46.40
2024-01-09T02:17:24.120Z,48.10
2024-01-09T02:17:34.124Z,47.90
2024-01-09T02:17:54.011Z,47.90
2024-01-09T02:18:04.090Z,49.20
2024-01-09T02:18:14.064Z,50.70
2024-01-09T02:18:24.164Z,50.30
2024-01-09T02:18:34.003Z,49.20
2024-01-09T02:18:44.640Z,49.50
2024-01-09T02:18:54.048Z,50.50
2024-01-09T02:19:04.037Z,50.50
2024-01-09T02:19:24.055Z,48.90
2024-01-09T02:19:34.034Z,48.20
2024-01-09T02:19:44.091Z,49.50
2024-01-09T02:19:54.027Z,49.20
2024-01-09T02:20:04.066Z,49.60
2024-01-09T02:20:14.060Z,48.20
2024-01-09T02:20:34.058Z,50.40
2024-01-09T02:20:44.051Z,50.70
2024-01-09T02:20:54.147Z,49.70
2024-01-09T02:21:04.034Z,48.30
2024-01-09T02:21:13.997Z,49.20
2024-01-09T02:21:24.032Z,49.40
2024-01-09T02:21:34.559Z,49.40
2024-01-09T02:21:53.995Z,48.80
2024-01-09T02:22:03.976Z,49.30
2024-01-09T02:22:13.966Z,49.20
2024-01-09T02:22:24.011Z,49.40
2024-01-09T02:22:34.012Z,48.40
2024-01-09T02:22:43.988Z,48.20
2024-01-09T02:23:03.969Z,48.10
2024-01-09T02:23:14.033Z,50.00
2024-01-09T02:23:24.040Z,51.10
2024-01-09T02:23:33.972Z,52.60
2024-01-09T02:23:44.003Z,49.90
2024-01-09T02:23:54.004Z,48.40
2024-01-09T02:24:03.998Z,48.70
2024-01-09T02:24:13.961Z,49.70
2024-01-09T02:24:23.982Z,49.90
2024-01-09T02:24:34.985Z,48.10
2024-01-09T02:24:53.982Z,48.20
2024-01-09T02:25:03.980Z,48.20
2024-01-09T02:25:13.966Z,47.60
2024-01-09T02:25:23.984Z,48.20
2024-01-09T02:25:33.978Z,49.30
2024-01-09T02:25:43.957Z,49.40
2024-01-09T02:25:56.050Z,49.60
2024-01-09T02:26:39.640Z,49.60
2024-01-09T02:26:54.539Z,49.50
2024-01-09T02:27:04.142Z,48.80
2024-01-09T02:27:05.537Z,49.10
2024-01-09T02:27:24.015Z,48.50
2024-01-09T02:27:34.006Z,48.00
2024-01-09T02:27:44.071Z,47.70
2024-01-09T02:27:54.672Z,48.80
2024-01-09T02:28:04.065Z,49.60
2024-01-09T02:28:13.988Z,51.10